Time;durP1;ratioP1;P1;durP2;ratioP2;P2;SDS_P1;SDS_P2;PMS_P1;PMS_P2;Temp;Humidity;BMP_temperature;BMP_pressure;BME280_temperature;BME280_humidity;BME280_pressure;Samples;Min_cycle;Max_cycle;Signal;HPM_P1;HPM_P2
2022/11/21 00:00:15;;;;;;;9.00;7.90;;;;;;;1.06;87.75;100510.97;6046606;29;20241;-73
2022/11/21 00:03:40;;;;;;;8.87;7.40;;;;;;;1.09;87.93;100507.25;6051970;29;20233;-74
2022/11/21 00:07:01;;;;;;;8.30;7.13;;;;;;;1.14;88.32;100507.88;6057326;29;20257;-73
2022/11/21 00:10:22;;;;;;;7.97;6.73;;;;;;;1.12;87.90;100509.75;6054955;29;20505;-73
2022/11/21 00:13:44;;;;;;;7.57;6.87;;;;;;;1.04;87.65;100502.25;6053069;29;20508;-72
2022/11/21 00:17:05;;;;;;;7.97;7.17;;;;;;;0.96;87.57;100509.75;6053814;29;20232;-73
2022/11/21 00:20:26;;;;;;;7.60;5.80;;;;;;;0.95;87.86;100500.09;6048675;29;20709;-74
2022/11/21 00:23:48;;;;;;;9.67;7.07;;;;;;;0.98;88.18;100499.06;6054680;29;20237;-71
2022/11/21 00:27:09;;;;;;;11.87;8.40;;;;;;;0.97;88.30;100492.88;6050562;29;20635;-73
2022/11/21 00:30:31;;;;;;;7.97;7.20;;;;;;;0.92;87.89;100496.75;6045775;29;20245;-72
2022/11/21 00:33:52;;;;;;;8.00;5.97;;;;;;;0.78;88.51;100495.72;6042546;29;20229;-73
2022/11/21 00:37:13;;;;;;;8.80;6.53;;;;;;;0.75;88.35;100492.38;6049228;29;20363;-73
2022/11/21 00:40:34;;;;;;;13.20;7.87;;;;;;;0.75;88.57;100490.56;6051137;29;20245;-73
2022/11/21 00:43:55;;;;;;;12.13;6.87;;;;;;;0.79;88.67;100486.78;6049618;29;20279;-74
2022/11/21 00:47:17;;;;;;;11.90;7.37;;;;;;;0.83;88.34;100482.19;6045169;29;22369;-73
2022/11/21 00:50:38;;;;;;;7.20;6.23;;;;;;;0.83;88.91;100469.75;6060697;29;20872;-73
2022/11/21 00:53:59;;;;;;;8.77;7.37;;;;;;;0.88;88.22;100472.16;6053555;29;20232;-73
2022/11/21 00:57:20;;;;;;;8.43;5.70;;;;;;;0.73;88.47;100471.22;6057291;29;20240;-73
2022/11/21 01:00:41;;;;;;;12.80;7.73;;;;;;;0.79;88.84;100468.22;6053729;29;20233;-73
2022/11/21 01:04:04;;;;;;;6.90;5.87;;;;;;;0.76;88.27;100471.06;6053436;29;21554;-75
2022/11/21 01:07:24;;;;;;;9.13;6.90;;;;;;;0.72;88.22;100476.63;6052496;29;20237;-74
2022/11/21 01:10:45;;;;;;;6.73;5.30;;;;;;;0.76;88.90;100467.56;6050338;29;20232;-73
2022/11/21 01:14:06;;;;;;;7.97;6.80;;;;;;;0.76;88.17;100475.50;6057276;29;20287;-72
2022/11/21 01:17:27;;;;;;;7.77;5.83;;;;;;;0.79;88.62;100470.06;6039951;29;20312;-73
2022/11/21 01:20:49;;;;;;;11.60;8.70;;;;;;;0.74;88.55;100477.38;6062136;29;20244;-73
2022/11/21 01:24:11;;;;;;;10.43;6.73;;;;;;;0.70;88.72;100474.06;6054881;29;20240;-73
2022/11/21 01:27:32;;;;;;;7.23;6.33;;;;;;;0.78;88.38;100477.13;6039738;29;20540;-73
2022/11/21 01:30:52;;;;;;;7.13;6.20;;;;;;;0.82;88.56;100476.03;6057587;29;20268;-73
2022/11/21 01:34:13;;;;;;;6.37;5.77;;;;;;;0.77;88.67;100471.94;6062134;29;20237;-73
2022/11/21 01:37:36;;;;;;;9.47;7.80;;;;;;;0.75;88.18;100484.41;6048654;29;20323;-74
2022/11/21 01:40:57;;;;;;;6.57;5.70;;;;;;;0.83;88.17;100476.91;6064594;29;20284;-74
2022/11/21 01:44:20;;;;;;;7.67;6.17;;;;;;;0.87;87.75;100478.44;6056471;29;20240;-72
2022/11/21 01:47:41;;;;;;;12.07;6.70;;;;;;;0.92;88.13;100484.31;6040728;29;20233;-74
2022/11/21 01:51:09;;;;;;;9.07;5.93;;;;;;;1.04;87.20;100470.38;6056809;29;20797;-73
2022/11/21 01:54:36;;;;;;;7.93;5.97;;;;;;;1.10;86.82;100474.50;6055860;29;20322;-73
2022/11/21 01:57:57;;;;;;;6.07;4.70;;;;;;;1.13;86.28;100480.47;6050756;29;20244;-73
2022/11/21 02:01:18;;;;;;;7.33;6.57;;;;;;;1.17;85.68;100484.66;6058346;29;20657;-74
2022/11/21 02:04:41;;;;;;;5.50;5.10;;;;;;;1.05;85.81;100480.03;6061327;29;20272;-74
2022/11/21 02:08:07;;;;;;;9.47;4.83;;;;;;;1.10;85.36;100479.78;6041582;29;20257;-73
2022/11/21 02:11:32;;;;;;;6.77;5.10;;;;;;;1.05;84.64;100489.81;6068332;29;20237;-73
2022/11/21 02:14:55;;;;;;;5.73;4.07;;;;;;;0.89;84.06;100488.94;6063553;29;20261;-74
2022/11/21 02:18:16;;;;;;;7.30;5.60;;;;;;;0.92;84.42;100491.44;6049195;29;20237;-73
2022/11/21 02:21:48;;;;;;;7.73;4.50;;;;;;;0.95;84.21;100480.66;6063832;29;20268;-74
2022/11/21 02:25:14;;;;;;;4.23;3.83;;;;;;;0.88;84.23;100489.91;6052589;29;20257;-73
2022/11/21 02:28:35;;;;;;;7.27;4.90;;;;;;;0.72;85.02;100484.56;6056245;29;20244;-74
2022/11/21 02:31:59;;;;;;;6.57;4.73;;;;;;;0.71;84.41;100488.16;6061859;29;20248;-73
2022/11/21 02:35:20;;;;;;;8.67;6.07;;;;;;;0.68;84.57;100483.03;6071278;29;20233;-74
2022/11/21 02:38:41;;;;;;;6.67;4.20;;;;;;;0.73;83.36;100481.00;6062068;29;20686;-74
2022/11/21 02:42:17;;;;;;;6.30;5.43;;;;;;;0.86;83.54;100487.31;6060960;29;20528;-74
2022/11/21 02:45:40;;;;;;;5.13;4.53;;;;;;;0.95;82.67;100478.00;6053155;29;20336;-73
2022/11/21 02:49:06;;;;;;;4.40;3.73;;;;;;;1.00;83.12;100471.47;6044082;29;20240;-75
2022/11/21 02:52:27;;;;;;;5.20;4.20;;;;;;;1.05;82.74;100473.88;6048505;29;20590;-73
2022/11/21 02:55:48;;;;;;;6.27;4.60;;;;;;;1.07;82.08;100472.84;6068298;29;20229;-72
2022/11/21 02:59:10;;;;;;;4.73;4.23;;;;;;;0.96;82.04;100474.41;6051367;29;20792;-73
2022/11/21 03:02:31;;;;;;;6.20;4.97;;;;;;;0.84;82.96;100481.25;6039748;29;20233;-74
2022/11/21 03:05:52;;;;;;;5.23;4.67;;;;;;;0.77;83.36;100467.47;6065606;29;20233;-73
2022/11/21 03:09:13;;;;;;;5.83;5.20;;;;;;;0.64;83.14;100463.78;6058274;29;20229;-73
2022/11/21 03:12:36;;;;;;;4.93;4.43;;;;;;;0.36;83.48;100465.34;6043448;29;20544;-74
2022/11/21 03:15:59;;;;;;;6.50;4.23;;;;;;;0.28;84.29;100467.56;6060678;29;20253;-74
2022/11/21 03:19:20;;;;;;;5.07;4.00;;;;;;;0.34;84.36;100457.50;6052835;29;20329;-74
2022/11/21 03:22:41;;;;;;;5.60;5.10;;;;;;;0.30;83.71;100458.59;6043442;29;20237;-74
2022/11/21 03:26:02;;;;;;;6.87;4.70;;;;;;;0.11;84.07;100451.69;6049996;29;20331;-74
2022/11/21 03:29:23;;;;;;;5.97;3.87;;;;;;;0.13;83.86;100453.31;6054875;29;20229;-73
2022/11/21 03:32:45;;;;;;;5.03;4.37;;;;;;;0.07;83.73;100450.13;6040980;29;20253;-74
2022/11/21 03:36:07;;;;;;;6.30;3.90;;;;;;;0.02;83.41;100438.94;6062368;29;20260;-74
2022/11/21 03:39:29;;;;;;;5.70;4.87;;;;;;;0.11;83.57;100443.75;6056766;29;20788;-73
2022/11/21 03:42:50;;;;;;;4.70;3.90;;;;;;;0.14;84.30;100443.59;6051927;29;20245;-73
2022/11/21 03:46:10;;;;;;;3.83;3.37;;;;;;;0.25;83.99;100449.19;6063857;29;20240;-73
2022/11/21 03:49:33;;;;;;;5.57;4.80;;;;;;;0.22;84.14;100451.97;6055918;29;20240;-73
2022/11/21 03:52:54;;;;;;;8.20;6.50;;;;;;;0.12;85.44;100454.28;6048144;29;20271;-74
2022/11/21 03:56:15;;;;;;;6.20;5.57;;;;;;;-0.04;87.37;100448.91;6062247;29;20437;-73
2022/11/21 03:59:36;;;;;;;8.67;7.03;;;;;;;-0.09;87.82;100450.09;6063078;29;20320;-74
2022/11/21 04:02:57;;;;;;;8.83;7.63;;;;;;;-0.17;88.50;100452.28;6046477;29;20349;-75
2022/11/21 04:06:21;;;;;;;8.50;6.80;;;;;;;-0.20;88.95;100461.25;6060686;29;20348;-73
2022/11/21 04:09:42;;;;;;;7.70;6.37;;;;;;;-0.34;89.57;100447.88;6055183;29;20623;-74
2022/11/21 04:13:03;;;;;;;8.13;5.97;;;;;;;-0.31;89.75;100457.41;6051730;29;20240;-74
2022/11/21 04:16:24;;;;;;;11.93;7.17;;;;;;;-0.30;89.81;100465.31;6057875;29;20241;-74
2022/11/21 04:19:44;;;;;;;12.50;7.30;;;;;;;-0.33;89.60;100461.94;6057855;29;20229;-73
2022/11/21 04:23:07;;;;;;;7.33;6.03;;;;;;;-0.35;89.41;100467.31;6048352;29;20483;-73
2022/11/21 04:26:28;;;;;;;9.37;7.00;;;;;;;-0.22;89.71;100468.41;6059885;29;20236;-73
2022/11/21 04:29:49;;;;;;;10.10;7.07;;;;;;;-0.25;89.04;100467.72;6056438;29;20237;-74
2022/11/21 04:33:11;;;;;;;7.07;6.40;;;;;;;-0.27;89.18;100474.91;6050054;29;20244;-73
2022/11/21 04:36:32;;;;;;;9.37;7.90;;;;;;;-0.35;89.77;100477.03;6059475;29;20546;-73
2022/11/21 04:39:54;;;;;;;16.13;7.63;;;;;;;-0.38;89.64;100469.28;6055393;29;20236;-73
2022/11/21 04:43:15;;;;;;;9.67;6.53;;;;;;;-0.44;89.86;100472.25;6033803;29;20313;-73
2022/11/21 04:46:36;;;;;;;9.63;7.67;;;;;;;-0.40;89.93;100479.94;6048816;29;20261;-74
2022/11/21 04:49:57;;;;;;;10.00;6.30;;;;;;;-0.44;89.80;100478.38;6053565;29;20254;-74
2022/11/21 04:53:18;;;;;;;7.43;6.40;;;;;;;-0.42;90.30;100478.31;6041796;29;20238;-74
2022/11/21 04:56:40;;;;;;;8.90;6.70;;;;;;;-0.33;89.41;100478.69;6059797;29;20238;-73
2022/11/21 05:00:01;;;;;;;13.77;8.93;;;;;;;-0.23;89.31;100477.28;6060692;29;20237;-73
2022/11/21 05:03:22;;;;;;;15.00;11.47;;;;;;;-0.21;89.84;100475.41;6047500;29;20236;-73
2022/11/21 05:06:43;;;;;;;31.93;22.70;;;;;;;-0.21;89.49;100478.06;6062534;29;20987;-74
2022/11/21 05:10:04;;;;;;;15.07;11.60;;;;;;;-0.24;88.87;100475.59;6052503;29;20240;-74
2022/11/21 05:13:25;;;;;;;36.73;24.23;;;;;;;-0.28;89.91;100475.81;6049761;29;20232;-75
2022/11/21 05:16:46;;;;;;;12.80;11.33;;;;;;;-0.30;88.85;100475.03;6053994;29;20248;-74
2022/11/21 05:20:08;;;;;;;9.17;7.83;;;;;;;-0.29;88.51;100474.09;6062826;29;20358;-74
2022/11/21 05:23:30;;;;;;;10.10;7.03;;;;;;;-0.22;88.54;100476.38;6039790;29;21307;-74
2022/11/21 05:26:51;;;;;;;13.23;8.30;;;;;;;-0.29;89.13;100474.94;6059817;29;20236;-74
2022/11/21 05:30:14;;;;;;;12.03;7.23;;;;;;;-0.30;89.26;100480.34;6060256;29;20241;-75
2022/11/21 05:33:35;;;;;;;9.13;6.60;;;;;;;-0.27;89.89;100478.38;6045992;29;20272;-74
2022/11/21 05:36:58;;;;;;;7.00;6.27;;;;;;;-0.50;90.43;100477.84;6057658;29;20525;-74
2022/11/21 05:40:19;;;;;;;9.93;7.50;;;;;;;-0.36;89.62;100484.16;6060938;29;20241;-73
2022/11/21 05:43:45;;;;;;;13.20;8.10;;;;;;;-0.71;91.07;100471.84;6050967;29;20282;-73
2022/11/21 05:47:07;;;;;;;7.47;5.53;;;;;;;-0.72;91.57;100479.81;6062429;29;20240;-73
2022/11/21 05:50:28;;;;;;;7.57;6.73;;;;;;;-0.88;91.88;100479.72;6052239;29;20245;-73
2022/11/21 05:53:49;;;;;;;10.67;7.37;;;;;;;-0.98;92.78;100471.34;6047076;29;20457;-73
2022/11/21 05:57:10;;;;;;;8.50;6.80;;;;;;;-0.96;92.98;100480.06;6060364;29;20233;-74
2022/11/21 06:00:32;;;;;;;13.23;7.73;;;;;;;-0.98;93.50;100489.88;6046287;29;20237;-74
2022/11/21 06:03:53;;;;;;;11.90;7.30;;;;;;;-0.96;92.71;100490.66;6050741;29;20263;-74
2022/11/21 06:07:14;;;;;;;11.57;8.27;;;;;;;-0.94;93.11;100483.50;6044549;29;20233;-74
2022/11/21 06:10:35;;;;;;;14.63;9.40;;;;;;;-0.96;92.96;100472.13;6049299;29;20280;-74
2022/11/21 06:13:56;;;;;;;13.33;8.33;;;;;;;-0.97;93.03;100475.72;6047674;29;20236;-74
2022/11/21 06:17:17;;;;;;;11.13;8.20;;;;;;;-0.89;92.24;100480.66;6045329;29;20241;-74
2022/11/21 06:20:39;;;;;;;12.80;7.67;;;;;;;-0.92;92.78;100480.81;6044857;29;21038;-74
2022/11/21 06:24:00;;;;;;;14.73;12.10;;;;;;;-0.96;92.53;100473.97;6034546;29;20244;-73
2022/11/21 06:27:20;;;;;;;14.77;10.83;;;;;;;-1.01;92.88;100466.25;6047239;29;20244;-73
2022/11/21 06:30:41;;;;;;;17.03;10.63;;;;;;;-0.98;92.60;100467.88;6040778;29;21099;-73
2022/11/21 06:34:02;;;;;;;16.40;9.00;;;;;;;-0.96;92.52;100469.50;6048993;29;20638;-73
2022/11/21 06:37:25;;;;;;;15.43;10.00;;;;;;;-0.97;92.71;100470.44;6053034;29;20233;-73
2022/11/21 06:40:46;;;;;;;16.37;13.90;;;;;;;-0.86;92.28;100472.56;6053157;29;20256;-73
2022/11/21 06:44:07;;;;;;;19.83;14.60;;;;;;;-0.42;94.64;100476.53;6047647;29;20655;-79
2022/11/21 06:47:28;;;;;;;17.50;11.10;;;;;;;0.29;94.78;100482.53;6047559;29;20237;-74
2022/11/21 06:50:49;;;;;;;12.90;9.93;;;;;;;0.39;90.69;100475.78;6048698;29;20236;-79
2022/11/21 06:54:10;;;;;;;10.33;8.53;;;;;;;-0.12;88.92;100476.72;6070591;29;20233;-72
2022/11/21 06:57:31;;;;;;;17.33;10.77;;;;;;;-0.23;89.63;100482.56;6062268;29;20575;-75
2022/11/21 07:00:52;;;;;;;12.57;8.47;;;;;;;-0.60;90.07;100485.38;6059503;29;20269;-74
2022/11/21 07:04:13;;;;;;;15.00;10.97;;;;;;;-0.85;90.61;100484.84;6063786;29;20233;-73
2022/11/21 07:07:34;;;;;;;18.17;11.53;;;;;;;-0.97;91.57;100499.53;6058147;29;20240;-77
2022/11/21 07:11:01;;;;;;;13.17;10.23;;;;;;;-1.16;92.42;100493.41;6056099;29;20233;-76
2022/11/21 07:14:21;;;;;;;16.00;10.87;;;;;;;-1.03;92.31;100493.69;6056125;29;20240;-77
2022/11/21 07:17:42;;;;;;;14.87;10.27;;;;;;;-1.05;91.82;100484.97;6047459;29;20339;-72
2022/11/21 07:21:06;;;;;;;15.73;8.07;;;;;;;-0.85;91.71;100480.44;6071123;29;20237;-70
2022/11/21 07:24:27;;;;;;;13.90;8.83;;;;;;;-0.91;91.19;100475.44;6052492;29;20647;-75
2022/11/21 07:27:49;;;;;;;11.30;9.10;;;;;;;-0.89;90.58;100476.22;6046710;29;20245;-71
2022/11/21 07:31:10;;;;;;;10.57;8.87;;;;;;;-0.76;90.34;100472.97;6059220;29;20324;-80
2022/11/21 07:34:31;;;;;;;13.23;11.17;;;;;;;-0.89;90.30;100476.22;6050681;29;20236;-74
2022/11/21 07:37:52;;;;;;;12.87;8.27;;;;;;;-0.64;90.15;100481.16;6039616;29;20323;-73
2022/11/21 07:41:13;;;;;;;17.73;9.27;;;;;;;-0.83;89.83;100481.22;6061291;29;20233;-77
2022/11/21 07:44:36;;;;;;;11.73;8.60;;;;;;;-0.77;90.19;100487.16;6066728;29;20240;-75
2022/11/21 07:47:59;;;;;;;10.80;9.03;;;;;;;-0.64;89.07;100472.34;6047777;29;20237;-79
2022/11/21 07:51:20;;;;;;;10.50;7.17;;;;;;;-0.50;88.76;100469.91;6072244;29;20233;-80
2022/11/21 07:54:41;;;;;;;11.53;8.63;;;;;;;-0.39;88.12;100471.06;6059481;29;20251;-74
2022/11/21 07:58:04;;;;;;;11.70;7.50;;;;;;;-0.20;87.38;100478.91;6045251;29;20237;-74
2022/11/21 08:01:26;;;;;;;11.97;8.03;;;;;;;0.10;86.38;100490.59;6062692;29;20237;-73
2022/11/21 08:04:47;;;;;;;12.77;10.60;;;;;;;-0.46;86.81;100497.94;6061433;29;20608;-76
2022/11/21 08:08:09;;;;;;;9.77;7.20;;;;;;;-0.28;86.65;100483.75;6047850;29;20240;-73
2022/11/21 08:11:31;;;;;;;11.57;8.37;;;;;;;-0.58;86.87;100477.34;6057655;29;20249;-74
2022/11/21 08:14:52;;;;;;;10.37;7.57;;;;;;;1.10;82.78;100475.34;6057966;29;20232;-72
2022/11/21 08:18:17;;;;;;;12.97;8.77;;;;;;;2.19;77.14;100469.69;6056265;29;20228;-74
2022/11/21 08:21:38;;;;;;;15.23;8.27;;;;;;;2.32;73.72;100467.16;6065778;29;20895;-72
2022/11/21 08:24:59;;;;;;;8.73;6.63;;;;;;;3.72;69.82;100467.78;6053500;29;20292;-72
2022/11/21 08:28:20;;;;;;;8.93;7.47;;;;;;;3.46;67.33;100463.34;6044633;29;21474;-76
2022/11/21 08:31:41;;;;;;;9.73;7.23;;;;;;;5.75;63.67;100452.16;6046831;29;20323;-74
2022/11/21 08:35:04;;;;;;;14.27;7.03;;;;;;;6.17;59.29;100453.41;6057564;29;20232;-74
2022/11/21 08:38:26;;;;;;;9.77;6.53;;;;;;;7.86;54.48;100443.00;6040091;29;20229;-77
2022/11/21 08:42:05;;;;;;;9.27;6.33;;;;;;;8.57;52.34;100439.53;6055906;29;20273;-76
2022/11/21 08:45:26;;;;;;;7.83;5.43;;;;;;;7.40;53.87;100436.25;6058201;29;20240;-76
2022/11/21 08:48:46;;;;;;;7.23;6.17;;;;;;;7.97;52.92;100440.28;6057125;29;20240;-76
2022/11/21 08:52:09;;;;;;;7.83;5.90;;;;;;;6.38;56.83;100438.34;6057928;29;20249;-76
2022/11/21 08:55:30;;;;;;;8.53;6.37;;;;;;;5.70;60.08;100446.28;6052728;29;23681;-76
2022/11/21 08:58:51;;;;;;;8.33;5.73;;;;;;;7.83;53.14;100431.69;6038908;29;20266;-75
2022/11/21 09:02:12;;;;;;;6.33;5.53;;;;;;;8.10;51.82;100434.72;6053643;29;20682;-74
2022/11/21 09:05:33;;;;;;;7.17;6.13;;;;;;;9.47;49.46;100441.22;6058759;29;20316;-73
2022/11/21 09:08:56;;;;;;;8.60;6.07;;;;;;;9.60;47.26;100433.72;6043809;29;20244;-76
2022/11/21 09:12:17;;;;;;;9.07;4.80;;;;;;;9.53;47.63;100435.28;6053545;29;20328;-73
2022/11/21 09:19:16;;;;;;;6.40;5.67;;;;;;;7.12;54.63;100440.34;6058212;29;20355;-78
2022/11/21 09:22:37;;;;;;;8.03;6.67;;;;;;;9.17;51.05;100440.47;6056662;29;20249;-78
2022/11/21 09:26:01;;;;;;;8.43;6.10;;;;;;;10.10;46.45;100444.31;6037101;29;20639;-77
2022/11/21 09:29:22;;;;;;;9.23;5.43;;;;;;;10.32;45.95;100449.44;6060642;29;20228;-77
2022/11/21 09:32:43;;;;;;;9.17;5.63;;;;;;;11.81;44.94;100441.88;6047313;29;20257;-79
2022/11/21 09:36:04;;;;;;;7.85;6.10;;;;;;;10.27;45.65;100441.78;6063105;29;20232;-73
2022/11/21 09:39:25;;;;;;;5.30;4.38;;;;;;;10.44;44.40;100441.06;6064797;29;20236;-72
2022/11/21 09:43:16;;;;;;;7.75;6.93;;;;;;;12.49;41.36;100440.22;6055499;29;20500;-78
2022/11/21 09:46:46;;;;;;;5.55;4.75;;;;;;;14.04;37.88;100434.19;6067612;29;20851;-73
2022/11/21 09:50:22;;;;;;;6.45;5.45;;;;;;;13.42;39.61;100446.47;6063026;29;20272;-72
2022/11/21 09:53:52;;;;;;;6.03;5.43;;;;;;;10.10;45.25;100452.41;6056079;29;20323;-76
2022/11/21 09:57:17;;;;;;;4.70;4.20;;;;;;;7.52;52.59;100454.88;6065573;29;20545;-72
2022/11/21 10:00:39;;;;;;;7.28;6.00;;;;;;;8.39;50.56;100453.72;6060505;29;20233;-70
2022/11/21 10:04:02;;;;;;;8.93;5.95;;;;;;;9.34;49.92;100454.09;6055412;29;20260;-73
2022/11/21 10:07:26;;;;;;;5.57;5.00;;;;;;;12.17;43.24;100437.28;6055095;29;20241;-77
2022/11/21 10:10:55;;;;;;;6.53;5.80;;;;;;;8.67;48.76;100445.81;6055386;29;20233;-75
2022/11/21 10:14:27;;;;;;;9.85;5.57;;;;;;;11.40;43.38;100434.34;6050683;29;20232;-76
2022/11/21 10:18:06;;;;;;;6.13;5.53;;;;;;;9.32;49.81;100444.47;6047206;29;20333;-75
2022/11/21 10:21:55;;;;;;;7.30;4.93;;;;;;;9.18;49.55;100439.50;6064004;29;20242;-75
2022/11/21 10:25:23;;;;;;;11.18;6.82;;;;;;;9.94;48.38;100428.78;6057130;29;20249;-76
2022/11/21 10:28:52;;;;;;;8.07;5.70;;;;;;;9.74;48.86;100428.94;6060728;29;20271;-84
2022/11/21 10:32:22;;;;;;;5.35;4.35;;;;;;;12.27;43.31;100419.13;6044943;29;20527;-73
2022/11/21 10:35:49;;;;;;;7.35;5.65;;;;;;;9.62;48.80;100428.19;6056388;29;20327;-72
2022/11/21 10:39:14;;;;;;;6.15;4.25;;;;;;;8.88;49.62;100426.09;6077452;29;20237;-76
2022/11/21 10:42:45;;;;;;;8.98;6.20;;;;;;;13.39;39.77;100411.56;6060173;29;20332;-78
2022/11/21 10:46:08;;;;;;;8.48;4.78;;;;;;;13.96;38.60;100409.78;6048626;29;20324;-73
2022/11/21 10:49:33;;;;;;;5.78;5.10;;;;;;;8.23;50.05;100432.69;6060725;29;20228;-75
2022/11/21 10:54:31;;;;;;;5.15;4.65;;;;;;;8.43;51.10;100418.41;6025958;29;20671;-74
2022/11/21 11:01:00;;;;;;;6.55;5.00;;;;;;;9.77;47.92;100399.88;6034035;29;20244;-87
2022/11/21 11:04:21;;;;;;;5.18;4.68;;;;;;;11.84;42.96;100395.66;6059826;29;20236;-87
2022/11/21 11:07:59;;;;;;;10.30;4.68;;;;;;;13.82;39.01;100396.94;6053779;29;20282;-85
2022/11/21 11:11:31;;;;;;;3.70;2.95;;;;;;;9.00;46.66;100414.22;6056460;29;20224;-85
2022/11/21 11:14:54;;;;;;;5.55;3.38;;;;;;;11.36;44.42;100387.94;6074777;29;20323;-83
2022/11/21 11:18:19;;;;;;;5.57;3.90;;;;;;;11.32;42.73;100400.03;6055166;29;20228;-81
2022/11/21 11:21:44;;;;;;;4.63;4.00;;;;;;;10.06;45.55;100399.81;6073152;29;20241;-84
2022/11/21 11:25:05;;;;;;;3.90;3.45;;;;;;;12.93;40.50;100389.59;6071628;29;20554;-85
2022/11/21 11:28:36;;;;;;;4.75;3.25;;;;;;;13.04;40.08;100387.44;6052267;29;20491;-84
2022/11/21 11:32:03;;;;;;;5.30;4.80;;;;;;;12.59;40.16;100384.19;6067942;29;20240;-85
2022/11/21 11:35:26;;;;;;;5.35;3.45;;;;;;;10.83;43.62;100397.75;6052408;29;20248;-81
2022/11/21 11:38:54;;;;;;;3.58;3.28;;;;;;;9.26;46.71;100400.13;6059276;29;20298;-80
2022/11/21 11:50:11;;;;;;;3.05;2.70;;;;;;;13.30;38.32;100376.53;6058528;29;20237;-73
2022/11/21 11:53:37;;;;;;;6.55;3.50;;;;;;;11.44;39.73;100370.94;6061707;29;20788;-74
2022/11/21 11:56:59;;;;;;;4.65;3.38;;;;;;;10.76;42.55;100367.88;6059197;29;20923;-73
2022/11/21 12:00:32;;;;;;;2.93;2.37;;;;;;;7.61;48.52;100368.28;6061929;29;20738;-74
2022/11/21 12:03:59;;;;;;;3.57;3.27;;;;;;;10.03;45.31;100368.69;6046442;29;20236;-71
2022/11/21 12:07:26;;;;;;;3.87;2.93;;;;;;;12.77;39.31;100344.38;6047414;29;20332;-72
2022/11/21 12:18:46;;;;;;;5.60;3.90;;;;;;;17.47;30.13;100297.88;6044085;29;20232;-73
2022/11/21 12:22:10;;;;;;;5.78;5.00;;;;;;;15.30;32.08;100295.75;6052997;29;20244;-73
2022/11/21 12:25:36;;;;;;;6.43;4.72;;;;;;;13.76;36.14;100293.78;6050841;29;20237;-72
2022/11/21 12:29:15;;;;;;;3.65;3.35;;;;;;;13.43;38.07;100295.69;6048077;29;20240;-74
2022/11/21 12:32:55;;;;;;;4.50;3.67;;;;;;;11.00;41.38;100300.72;6046115;29;20237;-76
2022/11/21 12:36:35;;;;;;;4.23;3.80;;;;;;;10.57;42.37;100297.88;6049969;29;20312;-75
2022/11/21 12:40:05;;;;;;;4.93;4.50;;;;;;;11.48;41.40;100281.44;6056948;29;20229;-72
2022/11/21 12:43:35;;;;;;;4.53;3.17;;;;;;;10.56;42.61;100288.09;6041986;29;20228;-73
2022/11/21 12:47:15;;;;;;;4.27;3.70;;;;;;;9.19;45.41;100285.19;6052598;29;20237;-72
2022/11/21 12:54:56;;;;;;;4.37;3.90;;;;;;;8.37;47.86;100283.81;6056616;29;20229;-76
2022/11/21 12:58:28;;;;;;;3.20;2.90;;;;;;;7.16;50.67;100286.34;6047578;29;20260;-76
2022/11/21 13:02:00;;;;;;;6.03;3.97;;;;;;;6.67;52.03;100280.69;6054907;29;20280;-78
2022/11/21 13:05:26;;;;;;;5.77;3.70;;;;;;;5.10;56.54;100288.75;6061739;29;20237;-80
2022/11/21 13:08:50;;;;;;;4.30;3.90;;;;;;;6.25;53.85;100285.03;6059495;29;20332;-75
2022/11/21 13:12:17;;;;;;;3.93;3.37;;;;;;;6.64;52.64;100272.91;6057822;29;20237;-74
2022/11/21 13:15:43;;;;;;;3.57;3.00;;;;;;;7.20;51.53;100261.84;6053880;29;20252;-74
2022/11/21 13:19:22;;;;;;;5.97;3.60;;;;;;;7.28;51.13;100259.34;6062501;29;20232;-75
2022/11/21 13:22:59;;;;;;;6.37;4.27;;;;;;;6.98;51.11;100267.31;6058416;29;22700;-76
2022/11/21 13:26:52;;;;;;;6.87;3.27;;;;;;;8.20;50.22;100262.97;6062919;29;20336;-77
2022/11/21 13:30:22;;;;;;;6.87;4.53;;;;;;;8.63;48.44;100255.47;6062706;29;20237;-74
2022/11/21 13:33:53;;;;;;;4.97;4.30;;;;;;;6.10;56.21;100268.38;6065652;29;20232;-77
2022/11/21 13:37:58;;;;;;;6.13;4.27;;;;;;;5.78;57.82;100254.00;6064949;29;20315;-74
2022/11/21 13:45:42;;;;;;;4.30;3.60;;;;;;;4.80;62.50;100259.84;6067347;29;20237;-71
2022/11/21 13:49:11;;;;;;;5.37;3.60;;;;;;;5.05;61.88;100266.03;6070005;29;20244;-74
2022/11/21 13:52:44;;;;;;;7.10;4.47;;;;;;;4.68;63.52;100263.44;6067647;29;20316;-74
2022/11/21 13:56:17;;;;;;;3.90;3.60;;;;;;;3.95;64.39;100256.44;6061549;29;20747;-76
2022/11/21 14:00:10;;;;;;;7.10;4.53;;;;;;;3.90;65.27;100270.09;6060841;29;20240;-73
2022/11/21 14:04:07;;;;;;;5.10;3.53;;;;;;;3.50;66.60;100276.53;6047663;29;20228;-74
2022/11/21 14:07:32;;;;;;;5.57;5.00;;;;;;;4.05;65.97;100269.00;6023995;29;20673;-75
2022/11/21 14:10:54;;;;;;;5.33;4.13;;;;;;;3.86;66.81;100270.41;6054500;29;20225;-75
2022/11/21 14:14:37;;;;;;;6.17;3.67;;;;;;;3.98;66.84;100262.41;6060969;29;20245;-75
2022/11/21 14:18:00;;;;;;;5.83;3.83;;;;;;;3.45;68.69;100275.13;6039537;29;20241;-74
2022/11/21 14:21:25;;;;;;;5.37;3.40;;;;;;;3.07;70.15;100281.28;6062962;29;20249;-78
2022/11/21 14:24:48;;;;;;;6.23;3.90;;;;;;;3.17;69.74;100277.03;6057216;29;20694;-77
2022/11/21 14:28:14;;;;;;;4.80;4.00;;;;;;;3.28;69.36;100273.63;6068071;29;20329;-74
2022/11/21 14:31:45;;;;;;;5.63;3.93;;;;;;;3.53;68.78;100272.78;6062024;29;20257;-70
2022/11/21 14:35:10;;;;;;;6.30;4.43;;;;;;;3.41;68.77;100263.84;6070330;29;20233;-74
2022/11/21 14:38:35;;;;;;;7.57;3.97;;;;;;;3.78;68.14;100260.31;6060875;29;20232;-75
2022/11/21 14:42:01;;;;;;;4.67;4.23;;;;;;;3.59;68.67;100249.22;6057732;29;20241;-77
2022/11/21 14:45:24;;;;;;;3.77;2.80;;;;;;;3.49;69.33;100245.50;6060082;29;20245;-73
2022/11/21 14:48:45;;;;;;;5.37;4.93;;;;;;;3.28;70.72;100254.13;6046683;29;20252;-76
2022/11/21 14:52:17;;;;;;;5.73;3.30;;;;;;;3.14;71.21;100257.75;6058742;29;20257;-77
2022/11/21 14:55:38;;;;;;;6.47;3.90;;;;;;;3.29;70.88;100254.03;6060723;29;21316;-77
2022/11/21 14:59:03;;;;;;;4.40;3.40;;;;;;;3.18;71.02;100259.25;6059681;29;20583;-76
2022/11/21 15:02:26;;;;;;;5.97;3.47;;;;;;;3.03;71.39;100262.94;6043032;29;20241;-77
2022/11/21 15:05:48;;;;;;;4.93;3.97;;;;;;;2.91;71.51;100256.66;6053185;29;21142;-76
2022/11/21 15:09:12;;;;;;;5.33;3.87;;;;;;;3.10;71.05;100250.94;6055614;29;20240;-77
2022/11/21 15:12:37;;;;;;;5.07;3.57;;;;;;;2.74;72.55;100240.97;6052442;29;20308;-73
2022/11/21 15:16:00;;;;;;;5.70;4.23;;;;;;;2.90;72.92;100235.47;6047076;29;20245;-81
2022/11/21 15:19:23;;;;;;;5.37;3.77;;;;;;;2.88;72.47;100232.91;6047957;29;20686;-77
2022/11/21 15:22:45;;;;;;;5.33;3.33;;;;;;;2.71;73.16;100232.34;6047065;29;20229;-77
2022/11/21 15:26:25;;;;;;;7.67;4.10;;;;;;;2.83;72.43;100232.38;6062934;29;20265;-78
2022/11/21 15:29:46;;;;;;;5.87;4.37;;;;;;;2.93;72.61;100228.13;6049037;29;20296;-76
2022/11/21 15:33:11;;;;;;;3.67;3.20;;;;;;;2.73;73.43;100217.97;6045343;29;20240;-76
2022/11/21 15:36:33;;;;;;;9.63;5.13;;;;;;;2.96;72.89;100217.25;6056047;29;20652;-76
2022/11/21 15:39:54;;;;;;;3.20;2.93;;;;;;;2.78;73.53;100215.84;6056705;29;20266;-76
2022/11/21 15:43:34;;;;;;;5.40;4.10;;;;;;;2.51;74.82;100217.69;6062997;29;20292;-77
2022/11/21 15:46:54;;;;;;;4.80;3.80;;;;;;;2.34;75.67;100212.63;6059902;29;20793;-76
2022/11/21 15:50:17;;;;;;;4.20;3.80;;;;;;;2.41;75.45;100203.31;6066279;29;20229;-76
2022/11/21 15:53:39;;;;;;;6.57;4.10;;;;;;;2.35;75.09;100209.88;6056190;29;20236;-77
2022/11/21 15:57:00;;;;;;;4.37;3.93;;;;;;;2.13;76.33;100219.34;6066766;29;20237;-76
2022/11/21 16:00:21;;;;;;;4.63;3.53;;;;;;;2.25;75.68;100215.91;6059691;29;20289;-75
2022/11/21 16:03:43;;;;;;;9.63;3.90;;;;;;;2.08;76.22;100213.47;6052479;29;20339;-76
2022/11/21 16:07:05;;;;;;;5.47;3.47;;;;;;;2.08;76.15;100203.72;6055634;29;20623;-76
2022/11/21 16:10:26;;;;;;;5.27;3.37;;;;;;;1.91;76.94;100205.75;6055200;29;20237;-76
2022/11/21 16:13:51;;;;;;;6.00;3.93;;;;;;;1.86;76.80;100200.72;6044712;29;20821;-76
2022/11/21 16:17:13;;;;;;;3.83;3.43;;;;;;;1.83;76.94;100189.44;6043280;29;20477;-76
2022/11/21 16:20:34;;;;;;;4.10;3.67;;;;;;;1.86;75.99;100184.78;6054267;29;20229;-76
2022/11/21 16:23:56;;;;;;;4.63;3.87;;;;;;;2.04;75.89;100180.94;6053276;29;20259;-75